Clayton Village, Mississippi
Current Conditions -  °F | °C
As of 2:35 PM on Monday 22 Dec 2014 (Local Time) from KSTF Reporting Station
Haze Haze  
Wind Chill: 54°   Ceiling: 300
Heat Index: 54°   Visibility: 3mi
Dew Point: 52°   Wind: 8mph
Humidity: 94%   Direction: 130°SE
Pressure: 29.72"   Gusts: NA
Location:  33.4256°N, 88.8438°W
Report Text: KSTF 222035Z AUTO 13007KT 3SM BR OVC003 12/11 A2972 RMK AO2
Loading
Personal Weather Stations






























Interactive Weather Map New forecast layout! Learn more

10-Day Weather Forecast

Advertisements
Track Severe Weather on mobile